createdAt,value
2022-11-20T00:02:27.893Z,1002.8
2022-11-20T00:07:34.017Z,1002.7
2022-11-20T00:12:40.130Z,1002.7
2022-11-20T00:22:52.352Z,1002.6
2022-11-20T00:27:57.484Z,1002.6
2022-11-20T00:33:02.598Z,1002.5
2022-11-20T00:38:08.693Z,1002.5
2022-11-20T00:43:13.811Z,1002.5
2022-11-20T00:48:18.944Z,1002.5
2022-11-20T00:53:25.055Z,1002.5
2022-11-20T00:58:31.156Z,1002.4
2022-11-20T01:03:37.280Z,1002.5
2022-11-20T01:08:43.364Z,1002.5
2022-11-20T01:13:49.474Z,1002.4
2022-11-20T01:18:55.590Z,1002.5
2022-11-20T01:24:01.673Z,1002.4
2022-11-20T01:29:07.769Z,1002.5
2022-11-20T01:34:13.899Z,1002.4
2022-11-20T01:39:19.994Z,1002.3
2022-11-20T01:44:26.095Z,1002.3
2022-11-20T01:49:32.204Z,1002.3
2022-11-20T01:54:37.323Z,1002.2
2022-11-20T01:59:43.433Z,1002.2
2022-11-20T02:04:49.529Z,1002.2
2022-11-20T02:09:55.634Z,1002.2
2022-11-20T02:15:01.763Z,1002.1
2022-11-20T02:20:07.860Z,1002.2
2022-11-20T02:25:13.957Z,1002.1
2022-11-20T02:30:19.094Z,1002.1
2022-11-20T02:35:24.205Z,1002.1
2022-11-20T02:40:30.320Z,1002.1
2022-11-20T02:45:35.438Z,1002
2022-11-20T02:50:40.575Z,1002
2022-11-20T02:55:46.680Z,1002
2022-11-20T03:00:52.785Z,1002
2022-11-20T03:05:58.882Z,1001.9
2022-11-20T03:11:04.998Z,1001.9
2022-11-20T03:16:11.111Z,1001.8
2022-11-20T03:21:17.211Z,1001.8
2022-11-20T03:26:23.322Z,1001.7
2022-11-20T03:31:29.409Z,1001.6
2022-11-20T03:36:35.515Z,1001.6
2022-11-20T03:41:41.630Z,1001.6
2022-11-20T03:46:47.718Z,1001.6
2022-11-20T03:51:53.841Z,1001.7
2022-11-20T03:56:58.953Z,1001.7
2022-11-20T04:02:05.055Z,1001.6
2022-11-20T04:07:11.177Z,1001.7
2022-11-20T04:12:17.274Z,1001.7
2022-11-20T04:17:23.369Z,1001.6
2022-11-20T04:22:29.475Z,1001.6
2022-11-20T04:27:35.579Z,1001.7
2022-11-20T04:32:40.718Z,1001.6
2022-11-20T04:37:45.839Z,1001.5
2022-11-20T04:42:50.965Z,1001.5
2022-11-20T04:47:56.066Z,1001.6
2022-11-20T04:53:02.182Z,1001.4
2022-11-20T04:58:08.276Z,1001.4
2022-11-20T05:03:14.383Z,1001.5
2022-11-20T05:08:20.495Z,1001.5
2022-11-20T05:13:26.603Z,1001.5
2022-11-20T05:18:32.709Z,1001.4
2022-11-20T05:23:38.807Z,1001.3
2022-11-20T05:28:44.897Z,1001.4
2022-11-20T05:33:51.026Z,1001.3
2022-11-20T05:38:57.113Z,1001.4
2022-11-20T05:44:03.217Z,1001.3
2022-11-20T05:49:09.336Z,1001.3
2022-11-20T05:54:14.443Z,1001.3
2022-11-20T05:59:20.562Z,1001.2
2022-11-20T06:04:26.659Z,1001.1
2022-11-20T06:09:32.764Z,1001.1
2022-11-20T06:14:38.850Z,1001.2
2022-11-20T06:19:44.961Z,1001.2
2022-11-20T06:24:51.076Z,1001.2
2022-11-20T06:29:56.205Z,1001.2
2022-11-20T06:35:01.332Z,1001.2
2022-11-20T06:40:07.438Z,1001.1
2022-11-20T06:45:13.516Z,1001.2
2022-11-20T06:50:19.632Z,1001.1
2022-11-20T06:55:25.751Z,1001.2
2022-11-20T07:00:31.846Z,1001.1
2022-11-20T07:05:37.941Z,1001.2
2022-11-20T07:10:44.058Z,1001.2
2022-11-20T07:15:50.171Z,1001.2
2022-11-20T07:20:56.280Z,1001.2
2022-11-20T07:26:02.371Z,1001.2
2022-11-20T07:31:08.488Z,1001.3
2022-11-20T07:36:14.560Z,1001.2
2022-11-20T07:41:19.729Z,1001.1
2022-11-20T07:46:25.802Z,1001.1
2022-11-20T07:51:31.887Z,1001.1
2022-11-20T07:56:38.006Z,1001.1
2022-11-20T08:01:44.131Z,1001.1
2022-11-20T08:06:50.218Z,1000.9
2022-11-20T08:11:56.327Z,1001
2022-11-20T08:17:01.489Z,1000.9
2022-11-20T08:22:06.592Z,1001
2022-11-20T08:27:11.703Z,1001
2022-11-20T08:32:16.816Z,1001
2022-11-20T08:37:21.933Z,1001
2022-11-20T08:42:27.051Z,1000.9
2022-11-20T08:47:33.147Z,1001
2022-11-20T08:52:39.255Z,1001
2022-11-20T08:57:45.353Z,1001
2022-11-20T09:02:51.525Z,1001
2022-11-20T09:07:57.650Z,1001
2022-11-20T09:13:03.751Z,1001
2022-11-20T09:18:09.923Z,1001
2022-11-20T09:23:16.001Z,1001
2022-11-20T09:28:22.096Z,1000.9
2022-11-20T09:33:28.218Z,1000.9
2022-11-20T09:38:34.130Z,1000.9
2022-11-20T09:43:40.407Z,1000.9
2022-11-20T09:53:51.647Z,1000.8
2022-11-20T09:58:57.729Z,1000.7
2022-11-20T10:04:03.830Z,1000.6
2022-11-20T10:09:09.745Z,1000.5
2022-11-20T10:14:16.001Z,1000.4
2022-11-20T10:19:22.086Z,1000.4
2022-11-20T10:24:28.171Z,1000.4
2022-11-20T10:29:33.327Z,1000.3
2022-11-20T10:34:38.452Z,1000.3
2022-11-20T10:39:43.529Z,1000.3
2022-11-20T10:44:48.681Z,1000.2
2022-11-20T10:49:54.638Z,1000.2
2022-11-20T10:55:00.731Z,1000.2
2022-11-20T11:00:06.900Z,1000.1
2022-11-20T11:05:12.915Z,1000
2022-11-20T11:10:19.114Z,1000
2022-11-20T11:15:25.330Z,1000
2022-11-20T11:20:31.369Z,1000
2022-11-20T11:25:37.498Z,999.8
2022-11-20T11:30:43.511Z,999.8
2022-11-20T11:35:49.772Z,999.8
2022-11-20T11:40:55.816Z,999.7
2022-11-20T11:46:01.905Z,999.6
2022-11-20T11:51:07.001Z,999.7
2022-11-20T11:56:13.118Z,999.6
2022-11-20T12:01:19.059Z,999.5
2022-11-20T12:06:25.314Z,999.5
2022-11-20T12:11:31.394Z,999.5
2022-11-20T12:16:37.497Z,999.5
2022-11-20T12:21:43.464Z,999.4
2022-11-20T12:26:48.783Z,999.5
2022-11-20T12:31:54.851Z,999.4
2022-11-20T12:36:59.786Z,999.4
2022-11-20T12:42:05.068Z,999.4
2022-11-20T12:47:10.184Z,999.3
2022-11-20T12:52:15.304Z,999.2
2022-11-20T12:57:21.409Z,999.2
2022-11-20T13:02:27.521Z,999.3
2022-11-20T13:07:33.468Z,999.3
2022-11-20T13:12:39.537Z,999.2
2022-11-20T13:17:45.709Z,999.1
2022-11-20T13:22:51.759Z,999
2022-11-20T13:27:57.951Z,998.8
2022-11-20T13:33:03.990Z,998.9
2022-11-20T13:38:10.121Z,998.9
2022-11-20T13:43:16.151Z,999
2022-11-20T13:48:22.255Z,998.9
2022-11-20T13:53:28.417Z,998.8
2022-11-20T13:58:33.535Z,998.8
2022-11-20T14:03:39.574Z,998.8
2022-11-20T14:08:45.664Z,998.9
2022-11-20T14:13:51.753Z,998.9
2022-11-20T14:18:56.869Z,998.9
2022-11-20T14:24:02.986Z,999
2022-11-20T14:29:09.093Z,999.1
2022-11-20T14:34:14.343Z,999
2022-11-20T14:39:19.325Z,999
2022-11-20T14:44:24.597Z,999
2022-11-20T14:49:29.553Z,998.9
2022-11-20T14:54:35.881Z,998.9
2022-11-20T14:59:41.793Z,998.9
2022-11-20T15:04:48.032Z,999
2022-11-20T15:09:53.956Z,998.9
2022-11-20T15:15:00.090Z,998.9
2022-11-20T15:20:06.184Z,998.9
2022-11-20T15:25:12.261Z,998.8
2022-11-20T15:30:18.528Z,999
2022-11-20T15:35:24.637Z,998.9
2022-11-20T15:40:30.655Z,998.8
2022-11-20T15:45:36.724Z,998.8
2022-11-20T15:50:42.928Z,998.8
2022-11-20T15:55:47.950Z,998.9
2022-11-20T16:00:53.978Z,998.9
2022-11-20T16:06:00.172Z,998.8
2022-11-20T16:11:06.364Z,998.8
2022-11-20T16:16:12.319Z,998.7
2022-11-20T16:21:18.374Z,998.7
2022-11-20T16:26:24.490Z,998.6
2022-11-20T16:31:29.649Z,998.6
2022-11-20T16:36:34.699Z,998.6
2022-11-20T16:41:40.825Z,998.6
2022-11-20T16:46:46.112Z,998.6
2022-11-20T16:51:51.041Z,998.7
2022-11-20T16:56:57.160Z,998.6
2022-11-20T17:02:03.253Z,998.6
2022-11-20T17:07:09.462Z,998.4
2022-11-20T17:12:15.503Z,998.3
2022-11-20T17:17:21.651Z,998.2
2022-11-20T17:22:27.671Z,998.3
2022-11-20T17:27:33.793Z,998.4
2022-11-20T17:32:39.912Z,998.3
2022-11-20T17:37:45.949Z,998.4
2022-11-20T17:42:52.032Z,998.3
2022-11-20T17:47:58.196Z,998.2
2022-11-20T17:53:04.247Z,998.1
2022-11-20T17:58:09.346Z,998.3
2022-11-20T18:03:15.436Z,998.2
2022-11-20T18:08:21.574Z,998.1
2022-11-20T18:13:27.645Z,998.1
2022-11-20T18:18:33.744Z,998
2022-11-20T18:23:39.846Z,997.8
2022-11-20T18:28:46.116Z,997.9
2022-11-20T18:33:51.163Z,997.8
2022-11-20T18:38:56.373Z,997.8
2022-11-20T18:44:02.254Z,997.7
2022-11-20T18:49:08.458Z,997.8
2022-11-20T18:54:14.564Z,997.7
2022-11-20T18:59:20.669Z,997.5
2022-11-20T19:04:26.800Z,997.6
2022-11-20T19:09:32.898Z,997.4
2022-11-20T19:14:39.049Z,997.3
2022-11-20T19:19:44.955Z,997.2
2022-11-20T19:24:51.124Z,997.1
2022-11-20T19:29:57.260Z,996.9
2022-11-20T19:35:03.260Z,996.8
2022-11-20T19:40:09.425Z,996.8
2022-11-20T19:45:14.479Z,996.7
2022-11-20T19:50:20.569Z,996.7
2022-11-20T19:55:26.672Z,996.7
2022-11-20T20:00:32.885Z,996.7
2022-11-20T20:05:38.869Z,996.7
2022-11-20T20:10:45.108Z,996.5
2022-11-20T20:15:51.250Z,996.6
2022-11-20T20:20:56.328Z,996.6
2022-11-20T20:26:02.463Z,996.5
2022-11-20T20:31:07.478Z,996.4
2022-11-20T20:36:12.671Z,996.4
2022-11-20T20:41:18.660Z,996.3
2022-11-20T20:46:24.866Z,996.4
2022-11-20T20:51:30.900Z,996.4
2022-11-20T20:56:36.946Z,996.4
2022-11-20T21:01:43.035Z,996.4
2022-11-20T21:06:49.135Z,996.3
2022-11-20T21:11:55.242Z,996.1
2022-11-20T21:17:01.335Z,996
2022-11-20T21:22:07.446Z,996
2022-11-20T21:27:13.536Z,995.9
2022-11-20T21:32:19.635Z,995.8
2022-11-20T21:37:25.745Z,995.6
2022-11-20T21:42:30.850Z,995.6
2022-11-20T21:47:36.957Z,995.6
2022-11-20T21:52:43.058Z,995.5
2022-11-20T21:57:49.158Z,995.5
2022-11-20T22:02:55.258Z,995.3
2022-11-20T22:08:01.352Z,995.2
2022-11-20T22:13:07.463Z,995
2022-11-20T22:18:12.588Z,995
2022-11-20T22:23:17.693Z,994.9
2022-11-20T22:28:22.826Z,994.8
2022-11-20T22:33:27.925Z,994.7
2022-11-20T22:38:34.065Z,994.7
2022-11-20T22:43:40.127Z,994.5
2022-11-20T22:48:46.230Z,994.4
2022-11-20T22:53:52.340Z,994.3
2022-11-20T22:58:58.425Z,994.1
2022-11-20T23:04:04.536Z,994.1
2022-11-20T23:09:10.642Z,993.9
2022-11-20T23:14:16.738Z,993.8
2022-11-20T23:19:22.843Z,993.7
2022-11-20T23:24:28.943Z,993.6
2022-11-20T23:29:35.033Z,993.6
2022-11-20T23:34:41.125Z,993.5
2022-11-20T23:39:46.256Z,993.5
2022-11-20T23:44:52.343Z,993.4
2022-11-20T23:49:58.457Z,993.2
2022-11-20T23:55:04.544Z,993.2
